Latest Coastal Weather Observations for East Sale

IDV60701

Issued at 12:41 pm EST Thursday 26 May 2016 (issued every 10 minutes, with the page automatically refreshed every 10 minutes)

About coastal observations | Map of coastal stations | Coastal observations for VIC | Marine services | Other Formats
Station Details ID: 085072 Name: EAST SALE AIRPORT Lat: -38.12 Lon: 147.13 Height: 4.6 m
Data from the previous 72 hours. | See also: Recent months at East Sale
Date/Time
EST
Temp

°C
Wind Pressure Rain
since 9am
mm
Weather Cloud Vis
km
Sea
Height
m
Swell
Dir
 
Speed
knots
Gust
knots
hPa Trend Height
m
Period
s
Dir
26/12:30pm 11.0 WNW 5 7 1001.5 - 2.2 Rain Partly cloudy 10 - - - -
26/12:00pm 10.9 NW 4 5 1001.8 F 1.6 Rain Cloudy 10 - - - -
26/11:38am 11.0 NW 6 8 1002.1 - 1.0 Rain Partly cloudy 10 - - - -
26/11:30am 11.2 NW 6 7 1002.2 - 1.0 Rain Partly cloudy 10 - - - -
26/11:00am 11.1 WNW 6 8 1002.8 - 0.6 - Partly cloudy 10 - - - -
26/10:30am 11.1 NNW 4 6 1003.0 - 0.2 Rain Mostly clear 10 - - - -
26/10:00am 11.0 CALM 0 0 1002.8 - 0.0 - Mostly clear 10 - - - -
26/09:30am 10.8 CALM 0 0 1002.8 - 0.0 - Mostly clear 10 - - - -
26/09:00am 10.5 CALM 0 0 1003.0 F 1.8 - Cloudy 10 - - - -
26/08:30am 10.4 CALM 0 0 1003.2 - 1.8 - Cloudy 10 - - - -
26/08:00am 10.1 SSE 3 4 1003.3 - 1.8 - Cloudy 10 - - - -
26/07:30am 10.0 ESE 3 4 1003.7 - 1.8 - Cloudy 10 - - - -
26/07:00am 9.9 SSE 4 5 1003.7 - 1.8 - Partly cloudy 10 - - - -
26/06:30am 9.9 SSE 5 6 1003.7 - 1.8 - Cloudy 10 - - - -
26/06:00am 10.0 S 4 5 1003.7 F 1.8 - Cloudy 10 - - - -
26/05:30am 10.2 SE 5 7 1004.0 - 1.8 - Cloudy 10 - - - -
26/05:00am 10.0 SE 5 6 1004.3 - 1.8 - Cloudy 10 - - - -
26/04:30am 10.1 ESE 4 5 1004.6 - 1.6 - Cloudy 10 - - - -
26/04:00am 10.1 ESE 3 5 1004.7 - 1.6 - Cloudy 10 - - - -
26/03:30am 10.4 SE 3 4 1005.2 - 1.6 - Cloudy 10 - - - -
26/03:00am 10.4 SSE 4 4 1005.4 F 1.2 Rain Mostly cloudy 10 - - - -
26/02:30am 10.2 SE 3 3 1005.7 - 0.6 - Partly cloudy 10 - - - -
26/02:00am 10.3 CALM 0 0 1006.1 - 0.4 - Cloudy 10 - - - -
26/01:30am 10.5 WNW 1 5 1006.3 - 0.2 - Partly cloudy 10 - - - -
26/01:00am 10.8 NE 5 6 1006.5 - 0.2 - Partly cloudy 10 - - - -
26/12:30am 11.1 NNE 5 8 1006.9 - 0.2 - Cloudy 10 - - - -
26/12:00am 11.1 NNE 6 8 1007.2 F 0.2 - Cloudy 10 - - - -
 
Date/Time
EST
Temp

°C
Wind Pressure Rain
since 9am
mm
Weather Cloud Vis
km
Sea
Height
m
Swell
Dir
 
Speed
knots
Gust
knots
hPa Trend Height
m
Period
s
Dir
25/11:30pm 10.8 NE 5 7 1007.5 - 0.2 - Cloudy 10 - - - -
25/11:00pm 11.0 NE 6 8 1007.8 - 0.2 - Partly cloudy 10 - - - -
25/10:30pm 11.1 NE 6 8 1008.3 - 0.2 - Cloudy 10 - - - -
25/10:00pm 10.8 NE 6 8 1008.6 - 0.2 - Partly cloudy 10 - - - -
25/09:30pm 11.5 NNE 7 8 1009.1 - 0.0 - Partly cloudy 10 - - - -
25/09:00pm 11.7 N 4 6 1009.4 F 0.0 - Cloudy 10 - - - -
25/08:30pm 11.5 NW 5 6 1009.6 - 0.0 - Partly cloudy 10 - - - -
25/08:00pm 11.6 NW 5 6 1009.6 - 0.0 - Partly cloudy 10 - - - -
25/07:30pm 11.5 NNW 7 9 1009.8 - 0.0 - Cloudy 10 - - - -
25/07:00pm 12.0 NNW 9 13 1009.7 - 0.0 - Partly cloudy 10 - - - -
25/06:30pm 12.9 NW 11 13 1010.0 - 0.0 - Cloudy 10 - - - -
25/06:00pm 14.4 NNW 13 18 1010.0 F 0.0 - Cloudy 10 - - - -
25/05:30pm 15.1 NW 12 15 1010.0 - 0.0 - Partly cloudy 10 - - - -
25/05:00pm 15.1 NNW 7 10 1010.4 - 0.0 - Partly cloudy 10 - - - -
25/04:30pm 14.7 NNE 5 6 1010.5 - 0.0 - Cloudy 10 - - - -
25/04:00pm 14.8 N 6 8 1010.7 - 0.0 - - 10 - - - -
25/03:30pm 15.3 NNE 5 7 1010.6 - 0.0 - - 10 - - - -
25/03:00pm 16.2 N 6 8 1010.5 F 0.0 - Cloudy 10 - - - -
25/02:30pm 14.7 SW 5 11 1010.7 - 0.0 - - 10 - - - -
25/02:00pm 14.1 N 2 4 1011.2 - 0.0 - - 10 - - - -
25/01:30pm 14.1 CALM 0 0 1011.5 - 0.0 - - 10 - - - -
25/01:00pm 14.2 CALM 0 0 1011.7 - 0.0 - - 10 - - - -
25/12:30pm 13.8 NNW 3 4 1012.5 - 0.0 - - 10 - - - -
25/12:00pm 14.2 N 4 6 1013.5 F 0.0 - Mostly cloudy 10 - - - -
25/11:30am 12.9 WNW 3 4 1014.3 - 0.0 - - 10 - - - -
25/11:00am 11.2 NW 3 4 1015.0 - 0.0 - - 10 - - - -
25/10:30am 10.4 NNW 3 4 1015.2 - 0.0 - - 10 - - - -
25/10:00am 10.1 NW 3 4 1015.4 - 0.0 - - 10 - - - -
25/09:30am 8.1 CALM 0 0 1015.7 - 0.0 - - 10 - - - -
25/09:00am 7.2 WNW 2 4 1016.3 F 0.0 - Mostly cloudy 10 - - - -
25/08:30am 4.6 CALM 0 0 1016.4 - 0.0 - - 10 - - - -
25/08:00am 3.7 NW 3 4 1016.4 - 0.0 - - 10 - - - -
25/07:30am 3.1 N 5 6 1016.4 - 0.0 - Mostly clear 10 - - - -
25/07:00am 3.1 NNW 4 5 1016.5 - 0.0 - Mostly clear 10 - - - -
25/06:30am 2.6 WNW 6 6 1016.8 - 0.0 - Partly cloudy 10 - - - -
25/06:00am 2.1 NW 3 5 1016.6 F 0.0 - Mostly clear 10 - - - -
25/05:30am 2.8 NNW 6 8 1016.8 - 0.0 - - 10 - - - -
25/05:00am 3.2 NW 6 7 1017.0 - 0.0 - - 10 - - - -
25/04:30am 2.5 WNW 6 7 1017.0 - 0.0 - - 10 - - - -
25/04:00am 2.4 WNW 4 6 1016.7 - 0.0 - - 10 - - - -
25/03:30am 2.8 NW 6 7 1016.6 - 0.0 - - 10 - - - -
25/03:00am 2.9 NNW 6 7 1016.8 F 0.0 - - 10 - - - -
25/02:30am 3.4 NNW 6 8 1017.1 - 0.0 - - 10 - - - -
25/02:00am 3.6 WNW 5 6 1017.2 - 0.0 - - 10 - - - -
25/01:30am 3.7 WNW 5 6 1017.2 - 0.0 - - 10 - - - -
25/01:00am 5.1 WNW 7 8 1017.6 - 0.0 - - 10 - - - -
25/12:30am 5.9 NW 5 6 1017.8 - 0.0 - - 10 - - - -
25/12:00am 5.6 W 5 6 1018.0 F 0.0 - - 10 - - - -
 
Date/Time
EST
Temp

°C
Wind Pressure Rain
since 9am
mm
Weather Cloud Vis
km
Sea
Height
m
Swell
Dir
 
Speed
knots
Gust
knots
hPa Trend Height
m
Period
s
Dir
24/11:30pm 6.9 W 6 7 1018.3 - 0.0 - - 10 - - - -
24/11:00pm 7.0 CALM 0 0 1018.6 - 0.0 - - 10 - - - -
24/10:30pm 8.5 W 6 7 1018.7 - 0.0 - Partly cloudy 10 - - - -
24/10:00pm 9.3 WNW 3 5 1019.2 - 0.0 - Partly cloudy 10 - - - -
24/09:30pm 10.2 W 6 8 1019.4 - 0.0 - Partly cloudy 10 - - - -
24/09:00pm 10.1 WSW 6 7 1019.5 S 0.0 - Cloudy 10 - - - -
24/08:30pm 10.8 W 6 8 1019.5 - 0.0 - Partly cloudy 10 - - - -
24/08:00pm 10.9 W 7 9 1019.3 - 0.0 - Partly cloudy 10 - - - -
24/07:30pm 10.8 W 7 9 1019.1 - 0.0 - Cloudy 10 - - - -
24/07:00pm 12.0 WNW 7 9 1018.9 - 0.0 - Cloudy 10 - - - -
24/06:30pm 12.7 W 11 17 1018.5 - 0.0 - Cloudy 10 - - - -
24/06:00pm 12.6 WSW 7 9 1018.8 R 0.0 - Cloudy 10 - - - -
24/05:30pm 12.9 WSW 11 14 1018.4 - 0.0 - Partly cloudy 10 - - - -
24/05:00pm 13.1 WSW 11 16 1018.0 - 0.0 - Cloudy 10 - - - -
24/04:30pm 13.6 WSW 14 19 1017.9 - 0.0 - Mostly clear 10 - - - -
24/04:00pm 14.3 WSW 16 22 1017.5 - 0.0 - Mostly clear 10 - - - -
24/03:30pm 14.4 WSW 16 21 1017.2 - 0.0 - Mostly clear 10 - - - -
24/03:19pm 14.5 W 17 27 1017.3 - 0.0 - Partly cloudy 10 - - - -
24/03:00pm 15.4 WSW 18 27 1017.1 R 0.0 - Mostly clear 10 - - - -
24/02:30pm 14.8 WSW 19 29 1016.9 - 0.0 - Partly cloudy 10 - - - -
24/02:12pm 14.7 W 19 29 1016.7 - 0.0 - Mostly clear 10 - - - -
24/02:00pm 14.8 WSW 21 29 1016.9 - 0.0 - Mostly clear 10 - - - -
24/01:55pm 15.3 WSW 18 29 1017.0 - 0.0 - Mostly clear 10 - - - -
24/01:30pm 15.3 W 18 26 1017.0 - 0.0 - Mostly clear 10 - - - -
24/01:10pm 14.6 W 18 28 1017.1 - 0.0 - Mostly clear 10 - - - -
24/01:00pm 15.3 W 19 26 1017.2 - 0.0 - Partly cloudy 10 - - - -
24/12:30pm 14.2 W 16 23 1017.6 - 0.0 - Partly cloudy 10 - - - -
24/12:00pm 14.0 WSW 14 21 1018.0 R 0.0 - Cloudy 10 - - - -
24/11:30am 14.0 W 19 25 1018.3 - 0.0 - Mostly clear 10 - - - -
24/11:00am 13.9 W 21 27 1018.7 - 0.0 - Mostly clear 10 - - - -
24/10:30am 12.6 W 17 23 1018.8 - 0.0 - Partly cloudy 10 - - - -
24/10:00am 11.9 W 15 22 1018.9 - 0.0 - Mostly clear 10 - - - -
24/09:30am 11.6 W 17 24 1018.8 - 0.0 - Mostly clear 10 - - - -
24/09:00am 11.1 WSW 14 21 1018.8 R 0.0 - Cloudy 10 - - - -
24/08:37am 10.9 WSW 13 18 1018.4 - 0.0 Showers Partly cloudy 9 - - - -
24/08:30am 11.0 WSW 12 17 1018.3 - 0.0 - Partly cloudy 10 - - - -
24/08:21am 11.0 W 13 18 1018.1 - 0.0 Showers Partly cloudy 8 - - - -
24/08:00am 11.2 W 13 19 1017.9 - 0.0 - Partly cloudy 10 - - - -
24/07:30am 10.7 W 10 14 1017.8 - 0.0 - Partly cloudy 10 - - - -
24/07:00am 10.4 W 11 15 1017.3 - 0.0 - Partly cloudy 10 - - - -
24/06:30am 10.2 W 8 11 1017.5 - 0.0 - Partly cloudy 10 - - - -
24/06:00am 10.0 W 8 9 1017.1 F 0.0 - Cloudy 10 - - - -
24/05:30am 10.1 WNW 7 8 1017.1 - 0.0 - Partly cloudy 10 - - - -
24/05:00am 9.9 WNW 7 9 1017.0 - 0.0 - Partly cloudy 10 - - - -
24/04:30am 9.7 NW 7 9 1017.1 - 0.0 - Partly cloudy 10 - - - -
24/04:00am 8.1 WNW 7 8 1017.0 - 0.0 - Partly cloudy 10 - - - -
24/03:30am 8.8 W 7 8 1017.3 - 0.0 - Partly cloudy 10 - - - -
24/03:00am 9.3 W 9 12 1017.4 F 0.0 - Partly cloudy 10 - - - -
24/02:30am 8.9 WNW 5 8 1017.6 - 0.0 - Partly cloudy 10 - - - -
24/02:00am 7.3 WNW 5 7 1017.5 - 0.0 - Partly cloudy 10 - - - -
24/01:30am 7.6 WNW 7 8 1017.6 - 0.0 - Partly cloudy 10 - - - -
24/01:00am 7.2 WNW 5 6 1017.7 - 0.0 - - 10 - - - -
24/12:30am 8.0 NW 6 7 1017.8 - 0.0 - Partly cloudy 10 - - - -
24/12:00am 8.3 NW 7 8 1018.1 R 0.0 - Mostly clear 10 - - - -
 
Date/Time
EST
Temp

°C
Wind Pressure Rain
since 9am
mm
Weather Cloud Vis
km
Sea
Height
m
Swell
Dir
 
Speed
knots
Gust
knots
hPa Trend Height
m
Period
s
Dir
23/11:30pm 9.2 WNW 8 9 1018.1 - 0.0 - Partly cloudy 10 - - - -
23/11:00pm 9.5 NW 8 9 1018.2 - 0.0 - Partly cloudy 10 - - - -
23/10:30pm 10.1 WNW 10 12 1018.2 - 0.0 - - 10 - - - -
23/10:00pm 9.4 WNW 8 10 1018.2 - 0.0 - - 10 - - - -
23/09:30pm 9.8 WNW 9 11 1018.3 - 0.0 - Partly cloudy 10 - - - -
23/09:00pm 10.1 WNW 11 16 1018.2 R 0.0 - Cloudy 10 - - - -
23/08:30pm 10.4 WNW 10 14 1018.3 - 0.0 - Partly cloudy 10 - - - -
23/08:00pm 10.6 W 9 11 1018.2 - 0.0 - Partly cloudy 10 - - - -
23/07:30pm 10.8 W 10 12 1018.1 - 0.0 - Partly cloudy 10 - - - -
23/07:00pm 10.9 W 16 21 1017.7 - 0.0 - Partly cloudy 10 - - - -
23/06:30pm 11.3 W 16 23 1017.3 - 0.0 - Partly cloudy 10 - - - -
23/06:00pm 11.5 W 14 21 1017.0 R 0.0 - Cloudy 10 - - - -
23/05:30pm 11.6 W 21 29 1016.5 - 0.0 - Partly cloudy 10 - - - -
23/05:21pm 11.7 WSW 17 28 1016.4 - 0.0 - Partly cloudy 10 - - - -
23/05:00pm 11.7 WSW 20 27 1016.2 - 0.0 - Partly cloudy 10 - - - -
23/04:49pm 12.7 W 18 28 1016.1 - 0.0 - Partly cloudy 10 - - - -
23/04:30pm 14.0 W 19 27 1015.6 - 0.0 - Partly cloudy 10 - - - -
23/04:00pm 14.6 W 23 37 1015.4 - 0.0 - - 10 - - - -
23/03:30pm 15.0 W 21 32 1015.0 - 0.0 - Partly cloudy 10 - - - -
23/03:00pm 15.1 W 25 35 1014.8 R 0.0 - - 10 - - - -
23/02:30pm 15.3 W 28 40 1014.4 - 0.0 - Partly cloudy 10 - - - -
23/02:00pm 15.5 W 28 37 1014.4 - 0.0 - Partly cloudy 10 - - - -
23/01:40pm 15.4 W 29 41 1014.2 - 0.0 - Mostly clear 10 - - - -
23/01:30pm 15.4 W 27 35 1014.2 - 0.0 - Partly cloudy 10 - - - -
23/01:00pm 15.5 W 26 37 1014.5 - 0.0 - Mostly clear 10 - - - -
23/12:55pm 15.5 W 25 35 1014.5 - 0.0 - Mostly clear 10 - - - -
23/12:51pm 15.5 W 27 36 1014.5 - 0.0 - Mostly clear 10 - - - -

Other Formats:

Comma delimited format used in spreadsheet applications
http://www.bom.gov.au/fwo/IDV60701/IDV60701.94907.axf

JavaScript Object Notation format (JSON) in row-major order
http://www.bom.gov.au/fwo/IDV60701/IDV60701.94907.json